createdAt,value
2018-01-02T00:31:37.069Z,4.60
2018-01-02T00:39:30.638Z,4.60
2018-01-02T00:47:40.743Z,3.30
2018-01-02T00:56:05.532Z,4.70
2018-01-02T01:26:04.918Z,4.90
2018-01-02T01:50:27.164Z,4.90
2018-01-02T01:53:02.444Z,4.90
2018-01-02T03:34:27.960Z,5.10
2018-01-02T03:49:19.874Z,4.90
2018-01-02T04:33:22.397Z,4.80
2018-01-02T04:50:21.555Z,4.80
2018-01-02T04:58:17.716Z,4.80
2018-01-02T05:37:36.393Z,4.90
2018-01-02T06:05:01.446Z,5.00
2018-01-02T06:10:51.795Z,5.10
2018-01-02T07:01:04.373Z,5.30
2018-01-02T07:09:23.649Z,5.30
2018-01-02T07:11:58.376Z,5.30
2018-01-02T07:17:47.377Z,5.30
2018-01-02T07:23:21.058Z,5.20
2018-01-02T07:26:07.713Z,5.20
2018-01-02T07:31:43.680Z,5.30
2018-01-02T07:34:26.585Z,5.20
2018-01-02T07:37:08.329Z,5.20
2018-01-02T07:39:38.758Z,5.20
2018-01-02T08:03:13.140Z,5.20
2018-01-02T08:14:28.630Z,5.20
2018-01-02T08:16:56.819Z,5.20
2018-01-02T08:19:24.916Z,5.20
2018-01-02T08:21:54.432Z,5.20
2018-01-02T08:24:22.548Z,5.20
2018-01-02T08:26:51.160Z,5.20
2018-01-02T08:32:35.190Z,5.20
2018-01-02T08:35:08.336Z,5.20
2018-01-02T08:37:36.456Z,5.20
2018-01-02T08:40:05.655Z,5.20
2018-01-02T08:42:41.596Z,5.20
2018-01-02T08:45:10.784Z,5.20
2018-01-02T08:50:57.274Z,5.20
2018-01-02T08:53:27.308Z,5.20
2018-01-02T08:55:55.647Z,5.20
2018-01-02T08:58:23.763Z,5.20
2018-01-02T09:00:51.936Z,5.20
2018-01-02T09:03:20.136Z,5.20
2018-01-02T09:05:48.560Z,5.20
2018-01-02T09:08:16.644Z,5.20
2018-01-02T09:10:44.753Z,5.20
2018-01-02T09:13:16.858Z,5.20
2018-01-02T09:15:45.004Z,5.20
2018-01-02T09:18:13.960Z,5.20
2018-01-02T09:20:42.035Z,5.20
2018-01-02T09:23:10.191Z,5.20
2018-01-02T09:25:38.349Z,5.20
2018-01-02T09:28:06.581Z,5.30
2018-01-02T09:30:34.794Z,5.20
2018-01-02T09:33:04.682Z,5.20
2018-01-02T09:35:34.818Z,5.20
2018-01-02T09:38:06.001Z,5.20
2018-01-02T09:40:36.218Z,5.20
2018-01-02T09:43:04.312Z,5.20
2018-01-02T09:45:33.859Z,5.20
2018-01-02T09:48:01.993Z,5.30
2018-01-02T09:59:04.234Z,5.30
2018-01-02T10:01:35.673Z,5.30
2018-01-02T10:08:09.221Z,5.40
2018-01-02T10:10:37.473Z,5.40
2018-01-02T10:13:06.576Z,5.50
2018-01-02T10:15:34.896Z,5.50
2018-01-02T10:18:03.037Z,5.50
2018-01-02T10:20:31.349Z,5.60
2018-01-02T10:25:43.004Z,5.60
2018-01-02T10:28:16.695Z,5.60
2018-01-02T10:30:45.320Z,5.60
2018-01-02T10:33:14.348Z,5.60
2018-01-02T10:35:43.448Z,5.60
2018-01-02T10:38:13.887Z,5.70
2018-01-02T10:40:43.041Z,5.70
2018-01-02T10:43:11.165Z,5.60
2018-01-02T10:45:39.909Z,5.60
2018-01-02T10:48:08.063Z,5.60
2018-01-02T10:50:36.166Z,5.60
2018-01-02T10:53:04.316Z,5.60
2018-01-02T10:55:39.242Z,5.60
2018-01-02T10:58:07.480Z,5.50
2018-01-02T11:00:41.060Z,5.50
2018-01-02T11:03:09.237Z,5.50
2018-01-02T11:05:39.511Z,5.40
2018-01-02T11:08:07.722Z,5.50
2018-01-02T11:10:43.462Z,5.50
2018-01-02T11:13:11.699Z,5.50
2018-01-02T11:15:40.420Z,5.50
2018-01-02T11:18:09.349Z,5.50
2018-01-02T11:20:37.971Z,5.50
2018-01-02T11:23:06.131Z,5.60
2018-01-02T11:25:34.234Z,5.50
2018-01-02T11:28:03.276Z,5.50
2018-01-02T11:30:31.501Z,5.50
2018-01-02T11:32:59.982Z,5.50
2018-01-02T11:35:28.335Z,5.60
2018-01-02T11:39:58.472Z,5.70
2018-01-02T11:42:26.570Z,5.70
2018-01-02T11:44:55.142Z,5.70
2018-01-02T11:47:23.326Z,5.70
2018-01-02T11:49:54.315Z,5.70
2018-01-02T11:54:58.834Z,5.70
2018-01-02T12:26:35.460Z,6.00
2018-01-02T12:35:21.822Z,6.00
2018-01-02T12:38:02.542Z,6.00
2018-01-02T12:40:32.662Z,6.00
2018-01-02T12:43:00.916Z,6.00
2018-01-02T12:45:35.256Z,6.10
2018-01-02T12:48:03.449Z,6.10
2018-01-02T12:50:31.611Z,6.10
2018-01-02T12:52:59.824Z,6.20
2018-01-02T12:55:27.950Z,6.20
2018-01-02T12:57:56.062Z,6.20
2018-01-02T13:00:24.139Z,6.20
2018-01-02T13:02:52.308Z,6.20
2018-01-02T13:05:20.483Z,6.20
2018-01-02T13:07:48.664Z,6.20
2018-01-02T13:10:16.808Z,6.20
2018-01-02T13:12:44.931Z,6.10
2018-01-02T13:15:13.026Z,6.20
2018-01-02T13:17:41.376Z,6.10
2018-01-02T13:20:09.456Z,6.10
2018-01-02T13:22:37.600Z,6.10
2018-01-02T13:25:05.740Z,6.20
2018-01-02T13:27:37.438Z,6.20
2018-01-02T13:30:06.425Z,6.10
2018-01-02T13:32:35.495Z,6.10
2018-01-02T13:35:04.003Z,6.10
2018-01-02T13:37:32.079Z,6.10
2018-01-02T13:40:03.118Z,6.10
2018-01-02T13:42:31.307Z,6.10
2018-01-02T13:45:00.691Z,6.10
2018-01-02T13:47:28.959Z,6.10
2018-01-02T13:49:57.100Z,6.00
2018-01-02T13:52:25.366Z,6.00
2018-01-02T13:54:54.601Z,6.00
2018-01-02T13:57:22.716Z,6.00
2018-01-02T13:59:50.811Z,6.10
2018-01-02T14:02:18.940Z,6.10
2018-01-02T14:04:47.844Z,6.00
2018-01-02T14:07:15.939Z,6.00
2018-01-02T14:09:44.031Z,6.00
2018-01-02T14:12:12.370Z,6.10
2018-01-02T14:14:40.588Z,6.00
2018-01-02T14:17:09.425Z,6.00
2018-01-02T14:19:38.475Z,6.00
2018-01-02T14:22:06.668Z,6.00
2018-01-02T14:24:34.757Z,6.00
2018-01-02T14:27:03.731Z,6.00
2018-01-02T14:33:35.520Z,6.10
2018-01-02T14:38:43.597Z,6.10
2018-01-02T14:41:11.700Z,6.10
2018-01-02T14:43:39.917Z,6.00
2018-01-02T14:46:08.106Z,6.00
2018-01-02T14:48:36.231Z,6.00
2018-01-02T14:51:04.499Z,6.00
2018-01-02T14:53:32.631Z,6.10
2018-01-02T14:56:00.858Z,5.90
2018-01-02T14:58:31.045Z,6.00
2018-01-02T15:00:59.139Z,6.00
2018-01-02T15:03:27.313Z,6.00
2018-01-02T15:05:57.253Z,6.00
2018-01-02T15:08:30.394Z,5.90
2018-01-02T15:10:58.503Z,5.90
2018-01-02T15:13:26.639Z,6.00
2018-01-02T15:15:54.853Z,5.90
2018-01-02T15:18:23.057Z,5.90
2018-01-02T15:20:52.048Z,5.80
2018-01-02T15:23:21.996Z,5.80
2018-01-02T15:25:50.214Z,5.80
2018-01-02T15:28:20.336Z,5.80
2018-01-02T15:30:48.539Z,5.80
2018-01-02T15:33:24.440Z,5.80
2018-01-02T15:35:52.670Z,5.80
2018-01-02T15:38:26.268Z,5.80
2018-01-02T15:40:55.397Z,5.80
2018-01-02T15:43:26.607Z,5.80
2018-01-02T15:45:55.156Z,5.70
2018-01-02T15:48:23.269Z,5.70
2018-01-02T15:50:51.348Z,5.70
2018-01-02T15:53:20.304Z,5.80
2018-01-02T15:55:48.795Z,5.70
2018-01-02T15:58:17.710Z,5.70
2018-01-02T16:00:47.596Z,5.60
2018-01-02T16:03:15.735Z,5.70
2018-01-02T16:05:43.864Z,5.70
2018-01-02T16:08:11.987Z,5.70
2018-01-02T16:10:40.116Z,5.70
2018-01-02T16:13:09.030Z,5.70
2018-01-02T16:15:37.138Z,5.80
2018-01-02T16:18:05.222Z,5.80
2018-01-02T16:20:33.354Z,5.80
2018-01-02T16:23:01.468Z,5.70
2018-01-02T16:25:29.608Z,5.70
2018-01-02T16:27:57.748Z,5.70
2018-01-02T16:30:25.900Z,5.70
2018-01-02T16:32:54.044Z,5.70
2018-01-02T16:35:22.223Z,5.70
2018-01-02T16:37:50.311Z,5.70
2018-01-02T16:40:18.662Z,5.70
2018-01-02T16:42:48.887Z,5.80
2018-01-02T16:45:17.079Z,5.80
2018-01-02T16:47:45.259Z,5.80
2018-01-02T16:50:13.544Z,5.70
2018-01-02T16:52:42.016Z,5.70
2018-01-02T16:55:10.106Z,5.70
2018-01-02T16:57:39.099Z,5.70
2018-01-02T17:00:07.217Z,5.70
2018-01-02T17:02:35.417Z,5.70
2018-01-02T17:05:03.605Z,5.70
2018-01-02T17:07:32.216Z,5.70
2018-01-02T17:10:01.170Z,5.70
2018-01-02T17:12:29.411Z,5.70
2018-01-02T17:14:57.555Z,5.70
2018-01-02T17:21:31.126Z,5.70
2018-01-02T17:27:15.305Z,5.60
2018-01-02T17:29:43.382Z,5.70
2018-01-02T17:32:11.531Z,5.70
2018-01-02T17:34:44.698Z,5.70
2018-01-02T17:37:12.855Z,5.70
2018-01-02T17:39:47.391Z,5.70
2018-01-02T17:42:16.378Z,5.70
2018-01-02T17:44:44.995Z,5.70
2018-01-02T17:47:13.076Z,5.70
2018-01-02T17:49:41.191Z,5.80
2018-01-02T17:58:53.728Z,5.70
2018-01-02T18:01:22.928Z,5.70
2018-01-02T18:03:51.028Z,5.70
2018-01-02T18:06:19.927Z,5.70
2018-01-02T18:08:48.795Z,5.70
2018-01-02T18:11:16.903Z,5.70
2018-01-02T18:13:45.110Z,5.70
2018-01-02T18:19:28.833Z,5.70
2018-01-02T18:26:00.580Z,5.60
2018-01-02T18:28:28.729Z,5.60
2018-01-02T18:30:57.759Z,5.60
2018-01-02T18:33:25.860Z,5.60
2018-01-02T18:35:54.419Z,5.50
2018-01-02T18:38:23.795Z,5.40
2018-01-02T18:43:32.176Z,5.40
2018-01-02T18:46:00.300Z,5.40
2018-01-02T18:48:30.366Z,5.40
2018-01-02T18:50:58.465Z,5.30
2018-01-02T18:53:27.508Z,5.30
2018-01-02T18:58:47.560Z,5.30
2018-01-02T19:01:15.766Z,5.30
2018-01-02T19:03:43.863Z,5.30
2018-01-02T19:06:12.750Z,5.30
2018-01-02T19:08:40.913Z,5.30
2018-01-02T19:11:09.232Z,5.30
2018-01-02T19:13:37.978Z,5.30
2018-01-02T19:18:57.046Z,5.20
2018-01-02T19:21:25.132Z,5.20
2018-01-02T19:23:54.957Z,5.20
2018-01-02T19:26:23.801Z,5.30
2018-01-02T19:28:52.751Z,5.30
2018-01-02T19:31:20.870Z,5.30
2018-01-02T19:33:48.974Z,5.20
2018-01-02T19:36:23.501Z,5.30
2018-01-02T19:38:51.586Z,5.20
2018-01-02T19:41:20.488Z,5.20
2018-01-02T19:43:48.591Z,5.20
2018-01-02T19:46:16.707Z,5.20
2018-01-02T19:48:44.823Z,5.20
2018-01-02T19:51:12.936Z,5.20
2018-01-02T19:53:41.059Z,5.20
2018-01-02T19:56:09.196Z,5.20
2018-01-02T19:58:37.287Z,5.20
2018-01-02T20:01:06.165Z,5.10
2018-01-02T20:03:34.410Z,5.10
2018-01-02T20:06:02.579Z,5.10
2018-01-02T20:08:30.717Z,5.10
2018-01-02T20:10:58.815Z,5.10
2018-01-02T20:13:26.914Z,5.00
2018-01-02T20:15:55.449Z,5.10
2018-01-02T20:18:29.095Z,5.10
2018-01-02T20:22:43.284Z,5.10
2018-01-02T20:25:11.424Z,5.00
2018-01-02T20:27:39.561Z,5.10
2018-01-02T20:30:12.385Z,5.10
2018-01-02T20:32:40.542Z,5.10
2018-01-02T20:35:08.671Z,5.10
2018-01-02T20:37:36.802Z,5.00
2018-01-02T20:40:04.955Z,5.10
2018-01-02T20:42:33.095Z,5.10
2018-01-02T20:45:01.256Z,5.10
2018-01-02T20:47:29.346Z,5.10
2018-01-02T20:49:57.463Z,5.10
2018-01-02T20:52:25.643Z,5.10
2018-01-02T20:54:53.819Z,5.10
2018-01-02T20:57:22.207Z,5.10
2018-01-02T20:59:50.364Z,5.10
2018-01-02T21:02:18.434Z,5.10
2018-01-02T21:04:47.595Z,5.10
2018-01-02T21:07:15.753Z,5.10
2018-01-02T21:09:43.867Z,5.10
2018-01-02T21:12:12.014Z,5.10
2018-01-02T21:14:40.092Z,5.20
2018-01-02T21:17:08.316Z,5.20
2018-01-02T21:19:36.993Z,5.20
2018-01-02T21:22:05.881Z,5.20
2018-01-02T21:24:33.991Z,5.20
2018-01-02T21:27:02.892Z,5.20
2018-01-02T21:29:31.043Z,5.20
2018-01-02T21:31:59.201Z,5.20
2018-01-02T21:34:27.276Z,5.20
2018-01-02T21:36:55.476Z,5.30
2018-01-02T21:39:23.557Z,5.30
2018-01-02T21:41:51.809Z,5.30
2018-01-02T21:44:19.988Z,5.30
2018-01-02T21:46:50.792Z,5.30
2018-01-02T21:49:18.920Z,5.30
2018-01-02T21:51:47.083Z,5.30
2018-01-02T21:54:16.053Z,5.40
2018-01-02T21:56:44.566Z,5.30
2018-01-02T21:59:12.719Z,5.40
2018-01-02T22:01:40.871Z,5.40
2018-01-02T22:04:08.959Z,5.50
2018-01-02T22:06:37.117Z,5.50
2018-01-02T22:09:05.232Z,5.50
2018-01-02T22:11:33.311Z,5.50
2018-01-02T22:14:08.437Z,5.60
2018-01-02T22:16:37.280Z,5.60
2018-01-02T22:19:05.609Z,5.50
2018-01-02T22:21:34.565Z,5.50
2018-01-02T22:24:02.813Z,5.50
2018-01-02T22:26:31.701Z,5.50
2018-01-02T22:28:59.829Z,5.50
2018-01-02T22:31:28.729Z,5.60
2018-01-02T22:33:57.699Z,5.60
2018-01-02T22:36:25.868Z,5.60
2018-01-02T22:38:53.944Z,5.60
2018-01-02T22:41:22.972Z,5.60
2018-01-02T22:43:51.183Z,5.60
2018-01-02T22:46:19.327Z,5.60
2018-01-02T22:48:47.487Z,5.60
2018-01-02T22:51:15.693Z,5.60
2018-01-02T22:53:43.860Z,5.70
2018-01-02T22:56:11.991Z,5.70
2018-01-02T22:58:40.990Z,5.70
2018-01-02T23:01:09.231Z,5.70
2018-01-02T23:07:40.923Z,5.80
2018-01-02T23:10:09.231Z,5.80
2018-01-02T23:12:38.112Z,5.80
2018-01-02T23:15:07.880Z,5.80
2018-01-02T23:17:36.820Z,5.80
2018-01-02T23:20:08.830Z,5.80
2018-01-02T23:22:36.938Z,5.80
2018-01-02T23:25:05.809Z,5.90
2018-01-02T23:27:34.406Z,5.90
2018-01-02T23:30:02.587Z,5.90
2018-01-02T23:32:30.699Z,5.90
2018-01-02T23:34:58.935Z,5.90
2018-01-02T23:37:29.730Z,5.90
2018-01-02T23:39:57.884Z,5.90
2018-01-02T23:45:07.058Z,6.00
2018-01-02T23:47:35.221Z,5.90
2018-01-02T23:50:03.390Z,6.00
2018-01-02T23:52:31.514Z,6.00
2018-01-02T23:54:59.709Z,6.00
2018-01-02T23:57:28.589Z,6.00
2018-01-02T23:59:57.522Z,6.00
